Time;durP1;ratioP1;P1;durP2;ratioP2;P2;SDS_P1;SDS_P2;PMS_P1;PMS_P2;Temp;Humidity;BMP_temperature;BMP_pressure;BME280_temperature;BME280_humidity;BME280_pressure;Samples;Min_cycle;Max_cycle;Signal;HPM_P1;HPM_P2
2022/01/04 00:01:19;;;;;;;24.90;8.13;;;7.60;99.90;;;;;;5119356;27;20039;-79
2022/01/04 00:03:46;;;;;;;27.50;7.88;;;7.70;99.90;;;;;;5126014;27;20042;-79
2022/01/04 00:06:12;;;;;;;17.70;7.05;;;7.70;99.90;;;;;;5145538;27;20046;-79
2022/01/04 00:08:39;;;;;;;19.95;7.60;;;7.70;99.90;;;;;;5118142;27;20047;-79
2022/01/04 00:11:09;;;;;;;21.95;7.45;;;7.70;99.90;;;;;;5116735;27;20047;-79
2022/01/04 00:13:35;;;;;;;30.65;8.57;;;7.70;99.90;;;;;;5119099;27;20050;-79
2022/01/04 00:16:05;;;;;;;19.48;7.70;;;7.80;99.90;;;;;;5119207;27;20051;-79
2022/01/04 00:18:32;;;;;;;26.63;7.05;;;7.80;99.90;;;;;;5127199;27;20405;-79
2022/01/04 00:20:58;;;;;;;16.30;8.25;;;7.80;99.90;;;;;;5149380;27;20047;-79
2022/01/04 00:23:25;;;;;;;23.80;7.32;;;7.90;99.90;;;;;;5130168;27;20042;-78
2022/01/04 00:25:51;;;;;;;23.95;7.15;;;7.80;99.90;;;;;;5135821;27;20043;-79
2022/01/04 00:28:18;;;;;;;25.15;8.45;;;7.90;99.90;;;;;;5146830;27;20043;-79
2022/01/04 00:30:44;;;;;;;19.33;7.28;;;7.90;99.90;;;;;;5150448;27;20043;-78
2022/01/04 00:33:11;;;;;;;25.27;7.72;;;7.90;99.90;;;;;;5128178;27;20046;-79
2022/01/04 00:35:38;;;;;;;16.50;7.32;;;7.90;99.90;;;;;;5146823;27;20134;-79
2022/01/04 00:38:04;;;;;;;18.90;7.82;;;8.00;99.90;;;;;;5118526;27;20117;-79
2022/01/04 00:40:31;;;;;;;18.65;7.90;;;7.90;99.90;;;;;;5117551;27;20062;-79
2022/01/04 00:42:58;;;;;;;23.65;7.43;;;8.00;99.90;;;;;;5128729;27;20050;-79
2022/01/04 00:45:25;;;;;;;23.70;7.03;;;8.00;99.90;;;;;;5134048;27;20043;-79
2022/01/04 00:50:32;;;;;;;20.58;8.20;;;8.00;99.90;;;;;;5122936;27;20409;-78
2022/01/04 00:52:58;;;;;;;26.40;9.88;;;8.00;99.90;;;;;;5130510;27;20466;-78
2022/01/04 00:55:25;;;;;;;14.40;7.88;;;8.00;99.90;;;;;;5125231;27;20491;-79
2022/01/04 00:57:51;;;;;;;18.08;7.78;;;8.00;99.90;;;;;;5137539;27;20047;-78
2022/01/04 01:00:18;;;;;;;27.05;7.97;;;8.00;99.90;;;;;;5124244;27;20050;-79
2022/01/04 01:02:44;;;;;;;19.15;8.57;;;8.00;99.90;;;;;;5148801;27;20051;-78
2022/01/04 01:05:11;;;;;;;34.15;9.50;;;8.00;99.90;;;;;;5127170;27;20054;-79
2022/01/04 01:07:38;;;;;;;27.55;8.73;;;8.10;99.90;;;;;;5140946;27;20055;-79
2022/01/04 01:10:17;;;;;;;28.38;8.35;;;8.10;99.90;;;;;;5124489;27;20123;-78
2022/01/04 01:12:44;;;;;;;29.43;9.07;;;8.10;99.90;;;;;;5122287;27;20047;-79
2022/01/04 01:15:11;;;;;;;24.15;9.23;;;8.00;99.90;;;;;;5125425;27;20292;-80
2022/01/04 01:17:37;;;;;;;27.48;10.15;;;8.10;99.90;;;;;;5124132;27;20047;-79
2022/01/04 01:20:04;;;;;;;28.95;11.88;;;8.00;99.90;;;;;;5118845;27;20046;-79
2022/01/04 01:22:30;;;;;;;32.80;10.57;;;8.00;99.90;;;;;;5125384;27;20039;-79
2022/01/04 01:24:57;;;;;;;21.38;9.85;;;8.00;99.90;;;;;;5118921;27;20060;-79
2022/01/04 01:27:23;;;;;;;26.88;9.75;;;8.00;99.90;;;;;;5117768;27;20066;-79
2022/01/04 01:29:50;;;;;;;30.17;9.00;;;7.90;99.90;;;;;;5116939;27;20063;-79
2022/01/04 01:32:16;;;;;;;28.05;9.73;;;7.90;99.90;;;;;;5115902;27;20048;-79
2022/01/04 01:34:43;;;;;;;28.55;8.63;;;7.80;99.90;;;;;;5126335;27;20051;-79
2022/01/04 01:37:09;;;;;;;23.88;7.45;;;7.80;99.90;;;;;;5119392;27;20058;-79
2022/01/04 01:39:36;;;;;;;18.60;6.45;;;7.80;99.90;;;;;;5118788;27;20051;-79
2022/01/04 01:42:03;;;;;;;21.02;6.85;;;7.80;99.90;;;;;;5117556;27;20047;-79
2022/01/04 01:44:31;;;;;;;27.13;7.88;;;7.80;99.90;;;;;;5113257;27;20455;-79
2022/01/04 01:46:57;;;;;;;33.30;7.07;;;7.80;99.90;;;;;;5111588;28;20052;-80
2022/01/04 01:49:24;;;;;;;24.02;7.00;;;7.80;99.90;;;;;;5123384;27;20047;-79
2022/01/04 01:51:51;;;;;;;19.52;8.52;;;7.80;99.90;;;;;;5122139;27;20050;-79
2022/01/04 01:54:17;;;;;;;20.83;8.18;;;7.80;99.90;;;;;;5111853;27;20043;-79
2022/01/04 01:56:44;;;;;;;21.48;7.90;;;7.80;99.90;;;;;;5125676;27;20043;-79
2022/01/04 01:59:10;;;;;;;29.88;7.80;;;7.80;99.90;;;;;;5122997;27;20498;-80
2022/01/04 02:01:37;;;;;;;23.42;8.30;;;7.70;99.90;;;;;;5121447;27;20054;-79
2022/01/04 02:04:03;;;;;;;19.13;7.38;;;7.80;99.90;;;;;;5113980;27;20054;-79
2022/01/04 02:06:30;;;;;;;18.33;8.77;;;7.80;99.90;;;;;;5127114;27;20054;-79
2022/01/04 02:08:56;;;;;;;30.83;8.65;;;7.70;99.90;;;;;;5132623;27;20039;-80
2022/01/04 02:11:23;;;;;;;20.13;8.35;;;7.80;99.90;;;;;;5134702;27;20050;-79
2022/01/04 02:13:50;;;;;;;23.20;7.97;;;7.80;99.90;;;;;;5138152;27;20047;-79
2022/01/04 02:16:16;;;;;;;19.90;8.90;;;7.80;99.90;;;;;;5130196;27;20211;-79
2022/01/04 02:18:43;;;;;;;19.52;7.50;;;7.80;99.90;;;;;;5125188;27;20046;-79
2022/01/04 02:21:09;;;;;;;27.40;7.63;;;7.90;99.90;;;;;;5152598;27;20082;-79
2022/01/04 02:23:36;;;;;;;34.78;8.25;;;7.90;99.90;;;;;;5116102;28;20051;-79
2022/01/04 02:26:02;;;;;;;33.08;8.70;;;7.80;99.90;;;;;;5136296;27;20504;-79
2022/01/04 02:28:29;;;;;;;26.30;8.68;;;7.90;99.90;;;;;;5139220;27;20513;-79
2022/01/04 02:30:55;;;;;;;15.85;6.22;;;7.80;99.90;;;;;;5135123;27;20046;-79
2022/01/04 02:33:22;;;;;;;18.00;7.10;;;7.90;99.90;;;;;;5132506;27;20043;-79
2022/01/04 02:35:49;;;;;;;25.30;8.88;;;7.90;99.90;;;;;;5123078;27;20062;-80
2022/01/04 02:38:15;;;;;;;20.02;7.65;;;7.80;99.90;;;;;;5152535;27;20050;-79
2022/01/04 02:40:42;;;;;;;27.00;8.38;;;7.90;99.90;;;;;;5131655;27;20055;-80
2022/01/04 02:43:08;;;;;;;20.55;8.20;;;7.80;99.90;;;;;;5135835;27;20054;-80
2022/01/04 02:45:35;;;;;;;20.67;9.35;;;7.80;99.90;;;;;;5129261;27;20039;-80
2022/01/04 02:48:01;;;;;;;18.77;8.15;;;7.80;99.90;;;;;;5117998;27;20051;-80
2022/01/04 02:50:28;;;;;;;21.92;8.50;;;7.80;99.90;;;;;;5138584;27;20058;-80
2022/01/04 02:52:55;;;;;;;26.92;7.63;;;7.80;99.90;;;;;;5151266;27;20059;-80
2022/01/04 02:55:21;;;;;;;28.17;7.13;;;7.80;99.90;;;;;;5122863;27;20126;-79
2022/01/04 02:57:48;;;;;;;34.58;8.60;;;7.80;99.90;;;;;;5124935;27;20043;-80
2022/01/04 03:00:14;;;;;;;22.95;9.13;;;7.80;99.90;;;;;;5139903;27;20055;-79
2022/01/04 03:02:41;;;;;;;22.13;7.85;;;7.80;99.90;;;;;;5135936;27;20055;-79
2022/01/04 03:05:07;;;;;;;23.20;8.50;;;7.80;99.90;;;;;;5131205;27;20047;-80
2022/01/04 03:07:34;;;;;;;23.75;8.93;;;7.80;99.90;;;;;;5118988;27;20058;-80
2022/01/04 03:10:01;;;;;;;23.35;8.30;;;7.80;99.90;;;;;;5143159;27;20051;-80
2022/01/04 03:12:27;;;;;;;15.40;7.65;;;7.80;99.90;;;;;;5154492;27;20057;-80
2022/01/04 03:14:54;;;;;;;23.45;7.70;;;7.80;99.90;;;;;;5117341;27;20043;-80
2022/01/04 03:17:20;;;;;;;31.83;8.63;;;7.80;99.90;;;;;;5138779;27;20046;-79
2022/01/04 03:19:47;;;;;;;28.55;10.05;;;7.80;99.90;;;;;;5145865;27;20047;-80
2022/01/04 03:22:13;;;;;;;30.08;8.95;;;7.80;99.90;;;;;;5123951;27;20054;-79
2022/01/04 03:24:40;;;;;;;28.73;8.38;;;7.70;99.90;;;;;;5148579;27;20046;-79
2022/01/04 03:27:06;;;;;;;26.23;9.85;;;7.70;99.90;;;;;;5120751;27;20051;-80
2022/01/04 03:29:33;;;;;;;25.98;10.43;;;7.70;99.90;;;;;;5134594;27;20054;-78
2022/01/04 03:31:59;;;;;;;22.83;10.07;;;7.70;99.90;;;;;;5130671;27;20051;-80
2022/01/04 03:34:26;;;;;;;19.80;9.60;;;7.80;99.90;;;;;;5134969;27;20043;-80
2022/01/04 03:36:52;;;;;;;20.58;10.18;;;7.70;99.90;;;;;;5117310;27;20051;-80
2022/01/04 03:39:19;;;;;;;28.25;10.35;;;7.80;99.90;;;;;;5123944;27;20046;-80
2022/01/04 03:41:46;;;;;;;31.75;9.20;;;7.80;99.90;;;;;;5127036;27;20059;-79
2022/01/04 03:44:15;;;;;;;19.50;8.60;;;7.80;99.90;;;;;;5129931;27;20050;-80
2022/01/04 03:46:41;;;;;;;27.45;10.23;;;7.70;99.90;;;;;;5130767;27;20153;-79
2022/01/04 03:49:08;;;;;;;32.58;11.27;;;7.70;99.90;;;;;;5130061;27;20050;-80
2022/01/04 03:51:34;;;;;;;19.08;9.15;;;7.70;99.90;;;;;;5146366;27;20050;-78
2022/01/04 03:54:02;;;;;;;29.67;10.02;;;7.70;99.90;;;;;;5122011;27;20043;-80
2022/01/04 03:56:29;;;;;;;27.83;10.23;;;7.70;99.90;;;;;;5133242;27;20225;-79
2022/01/04 03:58:55;;;;;;;26.85;12.15;;;7.80;99.90;;;;;;5129590;27;20046;-78
2022/01/04 04:01:22;;;;;;;25.75;10.27;;;7.70;99.90;;;;;;5132274;27;20061;-80
2022/01/04 04:03:48;;;;;;;35.97;10.13;;;7.70;99.90;;;;;;5121395;27;20039;-79
2022/01/04 04:06:15;;;;;;;28.23;11.20;;;7.70;99.90;;;;;;5127031;27;20054;-80
2022/01/04 04:08:41;;;;;;;36.00;10.60;;;7.70;99.90;;;;;;5118354;27;20055;-80
2022/01/04 04:11:08;;;;;;;25.60;10.32;;;7.70;99.90;;;;;;5116655;27;20054;-80
2022/01/04 04:13:34;;;;;;;32.45;10.55;;;7.70;99.90;;;;;;5146232;27;20444;-79
2022/01/04 04:16:01;;;;;;;22.08;10.35;;;7.60;99.90;;;;;;5139937;27;20482;-79
2022/01/04 04:18:27;;;;;;;29.33;10.23;;;7.70;99.90;;;;;;5134148;27;20051;-79
2022/01/04 04:20:54;;;;;;;32.15;10.43;;;7.60;99.90;;;;;;5122781;27;20057;-80
2022/01/04 04:23:20;;;;;;;24.70;11.07;;;7.70;99.90;;;;;;5128813;27;20061;-79
2022/01/04 04:25:47;;;;;;;18.77;10.85;;;7.60;99.90;;;;;;5124374;27;20043;-80
2022/01/04 04:28:13;;;;;;;31.02;11.73;;;7.60;99.90;;;;;;5128761;27;20095;-80
2022/01/04 04:30:40;;;;;;;25.63;10.90;;;7.60;99.90;;;;;;5125007;27;20043;-80
2022/01/04 04:33:07;;;;;;;26.42;10.80;;;7.70;99.90;;;;;;5126787;27;20051;-80
2022/01/04 04:35:33;;;;;;;24.88;10.68;;;7.70;99.90;;;;;;5132312;27;20050;-80
2022/01/04 04:38:00;;;;;;;30.35;11.32;;;7.70;99.90;;;;;;5116808;27;20079;-79
2022/01/04 04:40:26;;;;;;;33.03;11.55;;;7.70;99.90;;;;;;5121104;27;20204;-79
2022/01/04 04:42:53;;;;;;;26.75;11.55;;;7.60;99.90;;;;;;5116211;27;20494;-79
2022/01/04 04:45:19;;;;;;;18.67;9.27;;;7.60;99.90;;;;;;5120369;27;20481;-79
2022/01/04 04:47:46;;;;;;;21.50;9.73;;;7.60;99.90;;;;;;5122568;27;20420;-79
2022/01/04 04:50:12;;;;;;;23.95;10.88;;;7.60;99.90;;;;;;5134910;27;20050;-79
2022/01/04 04:52:39;;;;;;;30.05;11.02;;;7.60;99.90;;;;;;5133186;27;20046;-80
2022/01/04 04:55:05;;;;;;;23.98;9.57;;;7.60;99.90;;;;;;5132356;27;20056;-80
2022/01/04 04:57:32;;;;;;;21.35;11.95;;;7.60;99.90;;;;;;5132616;27;20046;-78
2022/01/04 04:59:58;;;;;;;37.38;13.50;;;7.60;99.90;;;;;;5130506;27;20047;-79
2022/01/04 05:02:25;;;;;;;28.98;11.50;;;7.70;99.90;;;;;;5118737;27;20062;-79
2022/01/04 05:04:51;;;;;;;29.30;12.73;;;7.70;99.90;;;;;;5128480;27;20046;-79
2022/01/04 05:07:18;;;;;;;42.05;12.60;;;7.70;99.90;;;;;;5126204;27;20044;-80
2022/01/04 05:09:45;;;;;;;33.65;11.73;;;7.70;99.90;;;;;;5127307;27;20058;-79
2022/01/04 05:12:11;;;;;;;20.45;10.25;;;7.70;99.90;;;;;;5121246;27;20098;-80
2022/01/04 05:14:40;;;;;;;24.25;11.02;;;7.70;99.90;;;;;;5125549;27;20050;-80
2022/01/04 05:17:07;;;;;;;26.15;12.27;;;7.70;99.90;;;;;;5130179;27;20097;-79
2022/01/04 05:19:34;;;;;;;34.35;12.68;;;7.60;99.90;;;;;;5145294;27;20061;-80
2022/01/04 05:22:00;;;;;;;26.83;12.70;;;7.60;99.90;;;;;;5118244;27;20047;-79
2022/01/04 05:24:27;;;;;;;35.97;12.77;;;7.60;99.90;;;;;;5124639;27;20058;-79
2022/01/04 05:26:53;;;;;;;31.33;12.98;;;7.60;99.90;;;;;;5135095;27;20084;-79
2022/01/04 05:29:20;;;;;;;31.73;13.52;;;7.60;99.90;;;;;;5116579;27;20047;-80
2022/01/04 05:31:46;;;;;;;28.33;13.07;;;7.60;99.90;;;;;;5115326;27;20043;-79
2022/01/04 05:34:13;;;;;;;23.10;12.80;;;7.60;99.90;;;;;;5117437;27;20061;-80
2022/01/04 05:36:39;;;;;;;23.80;12.02;;;7.60;99.90;;;;;;5126145;27;20066;-80
2022/01/04 05:39:06;;;;;;;29.67;14.18;;;7.60;99.90;;;;;;5133217;27;20106;-79
2022/01/04 05:41:33;;;;;;;41.75;15.10;;;7.60;99.90;;;;;;5127821;27;20053;-79
2022/01/04 05:44:00;;;;;;;22.90;12.55;;;7.70;99.90;;;;;;5139773;27;20047;-78
2022/01/04 05:46:26;;;;;;;41.28;12.93;;;7.60;99.90;;;;;;5120421;27;20043;-80
2022/01/04 05:48:53;;;;;;;25.13;12.68;;;7.60;99.90;;;;;;5118852;27;20055;-78
2022/01/04 05:51:19;;;;;;;34.97;13.52;;;7.60;99.90;;;;;;5114760;27;20371;-79
2022/01/04 05:53:46;;;;;;;31.38;13.88;;;7.60;99.90;;;;;;5128129;27;20488;-79
2022/01/04 05:56:12;;;;;;;34.65;13.70;;;7.60;99.90;;;;;;5117852;27;20043;-80
2022/01/04 05:58:39;;;;;;;29.63;13.40;;;7.60;99.90;;;;;;5137031;27;20501;-80
2022/01/04 06:01:05;;;;;;;29.88;13.25;;;7.60;99.90;;;;;;5132858;27;20401;-80
2022/01/04 06:03:32;;;;;;;34.05;13.50;;;7.60;99.90;;;;;;5121042;27;20043;-79
2022/01/04 06:05:59;;;;;;;35.95;14.95;;;7.60;99.90;;;;;;5121121;27;20072;-80
2022/01/04 06:08:30;;;;;;;34.65;14.40;;;7.60;99.90;;;;;;5116473;27;20493;-79
2022/01/04 06:10:58;;;;;;;32.35;14.05;;;7.60;99.90;;;;;;5134250;27;20481;-79
2022/01/04 06:16:09;;;;;;;49.40;14.27;;;7.60;99.90;;;;;;5120681;28;20463;-79
2022/01/04 06:18:36;;;;;;;26.95;13.15;;;7.70;99.90;;;;;;5118412;27;20042;-80
2022/01/04 06:21:02;;;;;;;31.52;13.07;;;7.70;99.90;;;;;;5126071;28;20039;-79
2022/01/04 06:23:29;;;;;;;23.80;12.98;;;7.70;99.90;;;;;;5114636;27;20063;-78
2022/01/04 06:25:55;;;;;;;35.85;12.60;;;7.70;99.90;;;;;;5116935;28;20055;-82
2022/01/04 06:28:22;;;;;;;27.58;13.35;;;7.70;99.90;;;;;;5124809;27;20054;-80
2022/01/04 06:30:48;;;;;;;30.05;13.43;;;7.60;99.90;;;;;;5135117;27;20047;-80
2022/01/04 06:33:15;;;;;;;34.72;14.00;;;7.60;99.90;;;;;;5114167;27;20051;-80
2022/01/04 06:35:41;;;;;;;30.63;12.65;;;7.60;99.90;;;;;;5132940;27;20051;-79
2022/01/04 06:38:08;;;;;;;44.15;11.95;;;7.60;99.90;;;;;;5124012;27;20046;-80
2022/01/04 06:40:34;;;;;;;26.25;12.80;;;7.60;99.90;;;;;;5143239;27;20058;-79
2022/01/04 06:43:01;;;;;;;35.28;11.48;;;7.60;99.90;;;;;;5118072;28;20050;-79
2022/01/04 06:45:28;;;;;;;32.95;11.70;;;7.60;99.90;;;;;;5139713;27;20062;-79
2022/01/04 06:47:54;;;;;;;29.50;13.75;;;7.60;99.90;;;;;;5122960;27;20063;-80
2022/01/04 06:50:21;;;;;;;28.25;14.35;;;7.60;99.90;;;;;;5124693;27;20051;-79
2022/01/04 06:52:47;;;;;;;29.65;13.48;;;7.60;99.90;;;;;;5130336;27;20473;-79
2022/01/04 06:55:15;;;;;;;34.60;13.15;;;7.60;99.90;;;;;;5126246;28;20047;-79
2022/01/04 06:57:41;;;;;;;38.45;13.75;;;7.60;99.90;;;;;;5146164;27;20039;-79
2022/01/04 07:00:08;;;;;;;37.70;14.93;;;7.60;99.90;;;;;;5144199;27;20050;-80
2022/01/04 07:02:34;;;;;;;31.80;13.88;;;7.70;99.90;;;;;;5117513;27;20054;-79
2022/01/04 07:05:01;;;;;;;34.30;13.43;;;7.60;99.90;;;;;;5123296;27;20046;-79
2022/01/04 07:07:27;;;;;;;25.17;12.15;;;7.60;99.90;;;;;;5142337;27;20046;-79
2022/01/04 07:09:54;;;;;;;38.63;13.88;;;7.60;99.90;;;;;;5147124;27;20055;-80
2022/01/04 07:12:21;;;;;;;27.83;13.10;;;7.70;99.90;;;;;;5135809;27;20128;-79
2022/01/04 07:14:47;;;;;;;28.15;11.77;;;7.60;99.90;;;;;;5151165;27;20039;-79
2022/01/04 07:17:14;;;;;;;36.47;14.05;;;7.60;99.90;;;;;;5145455;27;20042;-79
2022/01/04 07:19:40;;;;;;;24.15;13.35;;;7.60;99.90;;;;;;5123888;27;20047;-79
2022/01/04 07:22:07;;;;;;;31.65;12.52;;;7.60;99.90;;;;;;5120165;27;20043;-79
2022/01/04 07:24:33;;;;;;;31.40;13.60;;;7.60;99.90;;;;;;5139046;27;20050;-79
2022/01/04 07:27:00;;;;;;;37.80;13.82;;;7.60;99.90;;;;;;5118841;27;20112;-80
2022/01/04 07:29:26;;;;;;;28.52;13.18;;;7.60;99.90;;;;;;5132613;27;20058;-80
2022/01/04 07:31:53;;;;;;;37.78;13.95;;;7.60;99.90;;;;;;5144761;27;20054;-80
2022/01/04 07:34:20;;;;;;;28.63;13.90;;;7.60;99.90;;;;;;5117899;27;20501;-81
2022/01/04 07:36:46;;;;;;;31.98;13.98;;;7.60;99.90;;;;;;5131000;27;20047;-80
2022/01/04 07:39:13;;;;;;;43.58;14.27;;;7.60;99.90;;;;;;5123915;27;20047;-80
2022/01/04 07:41:39;;;;;;;33.03;15.20;;;7.60;99.90;;;;;;5124748;27;20042;-80
2022/01/04 07:44:06;;;;;;;31.95;14.20;;;7.60;99.90;;;;;;5119456;27;20039;-80
2022/01/04 07:46:32;;;;;;;27.52;14.35;;;7.70;99.90;;;;;;5149551;27;20047;-80
2022/01/04 07:48:59;;;;;;;27.95;15.07;;;7.60;99.90;;;;;;5125590;27;20045;-81
2022/01/04 07:51:25;;;;;;;23.35;12.25;;;7.60;99.90;;;;;;5122108;27;20047;-81
2022/01/04 07:53:52;;;;;;;23.60;12.18;;;7.60;99.90;;;;;;5133769;27;20050;-80
2022/01/04 07:56:19;;;;;;;23.98;12.52;;;7.60;99.90;;;;;;5131491;27;20046;-80
2022/01/04 07:58:45;;;;;;;29.33;12.05;;;7.60;99.90;;;;;;5133106;27;20057;-80
2022/01/04 08:01:13;;;;;;;32.97;11.32;;;7.60;99.90;;;;;;5135178;27;20054;-80
2022/01/04 08:03:39;;;;;;;31.85;11.00;;;7.60;99.90;;;;;;5151829;27;20057;-80
2022/01/04 08:06:06;;;;;;;18.05;9.85;;;7.60;99.90;;;;;;5133916;27;20379;-80
2022/01/04 08:08:32;;;;;;;31.48;12.60;;;7.60;99.90;;;;;;5133833;27;20085;-80
2022/01/04 08:10:59;;;;;;;16.95;10.32;;;7.50;99.90;;;;;;5153423;27;20054;-80
2022/01/04 08:13:29;;;;;;;20.98;10.32;;;7.60;99.90;;;;;;5152612;27;20063;-80
2022/01/04 08:15:56;;;;;;;19.52;10.93;;;7.60;99.90;;;;;;5135161;27;20066;-81
2022/01/04 08:18:22;;;;;;;21.45;11.63;;;7.60;99.90;;;;;;5133633;27;20043;-80
2022/01/04 08:20:50;;;;;;;20.55;11.05;;;7.60;99.90;;;;;;5134801;27;20050;-81
2022/01/04 08:23:16;;;;;;;21.00;11.73;;;7.60;99.90;;;;;;5150893;27;20046;-81
2022/01/04 08:25:43;;;;;;;19.77;11.57;;;7.60;99.90;;;;;;5132907;27;20050;-80
2022/01/04 08:28:09;;;;;;;27.17;12.52;;;7.60;99.90;;;;;;5132060;27;20053;-80
2022/01/04 08:30:36;;;;;;;23.10;10.02;;;7.60;99.90;;;;;;5133885;27;20542;-81
2022/01/04 08:33:03;;;;;;;7.93;4.07;;;7.80;99.90;;;;;;5150307;27;20474;-82
2022/01/04 08:35:29;;;;;;;8.48;4.28;;;7.60;99.90;;;;;;5130750;27;20493;-82
2022/01/04 08:37:56;;;;;;;6.38;2.65;;;7.60;99.90;;;;;;5132318;27;20034;-82
2022/01/04 08:40:22;;;;;;;4.35;1.95;;;7.50;99.90;;;;;;5130779;27;20047;-81
2022/01/04 08:42:49;;;;;;;8.23;2.97;;;7.40;99.90;;;;;;5132873;27;20054;-81
2022/01/04 08:45:17;;;;;;;7.38;2.72;;;7.30;99.90;;;;;;5132618;27;20062;-82
2022/01/04 08:47:44;;;;;;;6.13;2.75;;;7.30;99.90;;;;;;5130561;27;20050;-82
2022/01/04 08:50:11;;;;;;;12.80;3.20;;;7.30;99.90;;;;;;5152899;27;20050;-81
2022/01/04 08:52:37;;;;;;;7.20;3.15;;;7.30;99.90;;;;;;5133101;27;20073;-81
2022/01/04 08:55:04;;;;;;;5.22;3.20;;;7.30;99.90;;;;;;5151889;27;20042;-81
2022/01/04 08:57:30;;;;;;;6.65;3.10;;;7.20;99.90;;;;;;5132264;27;20055;-80
2022/01/04 08:59:57;;;;;;;9.48;4.03;;;7.20;99.90;;;;;;5152022;27;20039;-81
2022/01/04 09:02:24;;;;;;;6.68;4.00;;;7.20;99.90;;;;;;5132183;27;20138;-82
2022/01/04 09:04:50;;;;;;;8.05;4.00;;;7.20;99.90;;;;;;5151453;27;20056;-81
2022/01/04 09:07:17;;;;;;;6.78;4.22;;;7.20;99.90;;;;;;5135288;27;20043;-80
2022/01/04 09:09:43;;;;;;;7.22;4.03;;;7.20;99.90;;;;;;5147600;27;20047;-81
2022/01/04 09:12:11;;;;;;;9.77;3.78;;;7.20;99.90;;;;;;5151204;27;20047;-80
2022/01/04 09:14:56;;;;;;;6.95;3.53;;;7.20;99.90;;;;;;5129616;27;20190;-80
2022/01/04 09:20:07;;;;;;;13.90;4.50;;;7.20;99.90;;;;;;5133929;27;20043;-80
2022/01/04 09:22:33;;;;;;;12.23;4.03;;;7.20;99.90;;;;;;5132376;27;20035;-80
2022/01/04 09:25:00;;;;;;;10.52;4.18;;;7.20;99.90;;;;;;5152352;27;20092;-80
2022/01/04 09:27:26;;;;;;;5.97;3.47;;;7.20;99.90;;;;;;5131597;27;20051;-81
2022/01/04 09:29:53;;;;;;;6.35;4.43;;;7.20;99.90;;;;;;5151949;27;20050;-80
2022/01/04 09:32:20;;;;;;;7.72;4.20;;;7.20;99.90;;;;;;5132148;27;20043;-80
2022/01/04 09:34:46;;;;;;;9.80;3.78;;;7.20;99.90;;;;;;5147283;27;20047;-80
2022/01/04 09:37:13;;;;;;;6.93;4.00;;;7.20;99.90;;;;;;5152604;27;20039;-80
2022/01/04 09:39:39;;;;;;;5.65;3.75;;;7.20;99.90;;;;;;5132313;27;20048;-80
2022/01/04 09:42:08;;;;;;;8.63;4.95;;;7.20;99.90;;;;;;5131637;27;20058;-80
2022/01/04 09:44:34;;;;;;;11.93;3.70;;;7.30;99.90;;;;;;5131090;27;20082;-80
2022/01/04 09:47:03;;;;;;;14.63;3.80;;;7.40;99.90;;;;;;5129587;27;20042;-80
2022/01/04 09:49:29;;;;;;;9.27;3.72;;;7.40;99.90;;;;;;5151298;27;20058;-80
2022/01/04 09:51:56;;;;;;;5.93;3.00;;;7.40;99.90;;;;;;5127667;27;20069;-80
2022/01/04 09:54:23;;;;;;;17.00;3.50;;;7.60;99.90;;;;;;5151226;27;20050;-80
2022/01/04 09:56:50;;;;;;;7.57;1.90;;;7.70;99.90;;;;;;5129809;27;20090;-80
2022/01/04 09:59:16;;;;;;;6.10;1.80;;;7.70;99.90;;;;;;5130146;27;20108;-80
2022/01/04 10:01:45;;;;;;;8.00;2.60;;;7.80;99.90;;;;;;5146883;27;20050;-80
2022/01/04 10:04:11;;;;;;;4.53;1.73;;;7.50;99.90;;;;;;5130638;27;20538;-80
2022/01/04 10:06:39;;;;;;;5.45;2.00;;;7.50;99.90;;;;;;5149119;27;20042;-80
2022/01/04 10:09:08;;;;;;;4.65;1.85;;;7.40;99.90;;;;;;5129406;27;20130;-80
2022/01/04 10:11:34;;;;;;;8.10;1.90;;;7.30;99.90;;;;;;5129606;27;20493;-80
2022/01/04 10:14:01;;;;;;;6.13;1.42;;;7.10;99.90;;;;;;5151276;27;20125;-80
2022/01/04 10:16:27;;;;;;;7.60;1.27;;;7.10;99.90;;;;;;5138021;27;20051;-80
2022/01/04 10:18:54;;;;;;;5.22;1.08;;;7.10;99.90;;;;;;5143932;27;20129;-79
2022/01/04 10:21:21;;;;;;;7.00;1.35;;;6.90;99.90;;;;;;5116594;28;20055;-80
2022/01/04 10:23:47;;;;;;;8.60;0.90;;;6.90;99.90;;;;;;5135528;27;20497;-80
2022/01/04 10:26:14;;;;;;;13.45;1.30;;;6.70;99.90;;;;;;5141119;27;20476;-80
2022/01/04 10:28:40;;;;;;;8.57;1.20;;;7.10;99.90;;;;;;5147072;27;20489;-80
2022/01/04 10:31:07;;;;;;;5.60;2.38;;;7.30;99.90;;;;;;5120067;27;20043;-79
2022/01/04 10:33:34;;;;;;;11.77;1.95;;;7.40;99.90;;;;;;5142935;27;20054;-79
2022/01/04 10:36:01;;;;;;;11.13;1.17;;;7.40;99.90;;;;;;5122562;27;20049;-79
2022/01/04 10:38:27;;;;;;;6.15;1.23;;;7.30;99.90;;;;;;5148985;27;20496;-80
2022/01/04 10:40:54;;;;;;;0.60;0.38;;;7.30;99.90;;;;;;5128045;27;20585;-80
2022/01/04 10:43:20;;;;;;;5.15;0.95;;;7.30;99.90;;;;;;5149448;27;20050;-79
2022/01/04 10:45:47;;;;;;;2.33;0.60;;;7.30;99.90;;;;;;5125307;27;20051;-79
2022/01/04 10:48:13;;;;;;;6.05;1.27;;;7.20;99.90;;;;;;5135120;27;20141;-80
2022/01/04 10:50:40;;;;;;;7.53;0.88;;;7.20;99.90;;;;;;5147589;27;20050;-79
2022/01/04 10:53:06;;;;;;;6.80;1.05;;;7.10;99.90;;;;;;5127334;27;20066;-79
2022/01/04 10:55:33;;;;;;;5.03;1.33;;;7.00;99.90;;;;;;5148016;27;20065;-79
2022/01/04 10:58:00;;;;;;;3.70;0.88;;;7.00;99.90;;;;;;5133029;27;20878;-79
2022/01/04 11:00:26;;;;;;;1.90;0.82;;;6.90;99.90;;;;;;5125309;27;20055;-79
2022/01/04 11:02:53;;;;;;;0.40;0.35;;;6.80;99.90;;;;;;5141821;27;20054;-79
2022/01/04 11:05:20;;;;;;;2.50;0.82;;;6.70;99.90;;;;;;5149797;27;20043;-79
2022/01/04 11:07:47;;;;;;;2.47;0.88;;;6.50;99.90;;;;;;5129240;27;20080;-78
2022/01/04 11:10:13;;;;;;;2.10;0.82;;;6.40;99.90;;;;;;5130321;27;20043;-79
2022/01/04 11:12:40;;;;;;;4.03;0.82;;;6.20;99.90;;;;;;5129671;27;20043;-79
2022/01/04 11:15:07;;;;;;;2.88;0.55;;;6.10;99.90;;;;;;5141729;27;20062;-79
2022/01/04 11:17:33;;;;;;;6.72;1.13;;;6.20;99.90;;;;;;5128416;27;20063;-79
2022/01/04 11:20:00;;;;;;;1.58;0.70;;;6.10;99.90;;;;;;5117227;27;20690;-79
2022/01/04 11:22:26;;;;;;;2.15;1.45;;;6.00;99.90;;;;;;5127187;27;20485;-83
2022/01/04 11:24:53;;;;;;;3.70;0.43;;;6.00;99.90;;;;;;5121513;27;20043;-82
2022/01/04 11:27:19;;;;;;;5.35;1.00;;;6.10;99.90;;;;;;5116856;27;20044;-83
2022/01/04 11:29:46;;;;;;;6.65;1.30;;;6.00;99.90;;;;;;5118887;27;20067;-83
2022/01/04 11:32:14;;;;;;;2.08;1.35;;;6.00;99.90;;;;;;5123500;27;20050;-83
2022/01/04 11:34:41;;;;;;;9.02;1.05;;;6.10;99.90;;;;;;5120873;27;20414;-81
2022/01/04 11:37:07;;;;;;;7.32;0.95;;;6.20;99.90;;;;;;5112205;27;20056;-79
2022/01/04 11:39:34;;;;;;;2.58;0.50;;;6.20;99.90;;;;;;5127994;27;20051;-79
2022/01/04 11:42:01;;;;;;;1.80;0.30;;;6.10;99.90;;;;;;5119776;27;20557;-79
2022/01/04 11:44:27;;;;;;;2.05;0.80;;;6.00;99.90;;;;;;5127920;27;20059;-79
2022/01/04 11:46:54;;;;;;;9.00;1.17;;;6.00;99.90;;;;;;5122092;27;20067;-79
2022/01/04 11:49:20;;;;;;;1.98;0.90;;;5.80;99.90;;;;;;5129597;27;20498;-79
2022/01/04 11:51:47;;;;;;;4.68;1.38;;;5.70;99.90;;;;;;5114943;27;20051;-79
2022/01/04 11:54:13;;;;;;;4.00;1.58;;;5.80;99.90;;;;;;5119365;27;20055;-79
2022/01/04 11:56:40;;;;;;;5.25;1.30;;;5.80;99.90;;;;;;5111486;27;20486;-79
2022/01/04 11:59:06;;;;;;;3.42;1.30;;;5.80;99.90;;;;;;5123023;27;20091;-79
2022/01/04 12:01:33;;;;;;;10.80;1.52;;;5.70;99.90;;;;;;5117693;27;20056;-79
2022/01/04 12:03:59;;;;;;;5.80;1.25;;;5.80;99.90;;;;;;5121165;27;20058;-79
2022/01/04 12:06:26;;;;;;;4.15;1.90;;;5.90;99.90;;;;;;5125413;27;20055;-79
2022/01/04 12:08:53;;;;;;;7.50;1.35;;;5.90;99.90;;;;;;5128067;27;20054;-79
2022/01/04 12:11:20;;;;;;;12.70;1.50;;;5.90;99.90;;;;;;5123706;27;20047;-79
2022/01/04 12:13:46;;;;;;;6.53;1.42;;;5.80;99.90;;;;;;5120611;27;20151;-78
2022/01/04 12:16:13;;;;;;;10.05;1.88;;;5.70;99.90;;;;;;5125144;27;20054;-79
2022/01/04 12:18:40;;;;;;;3.53;1.33;;;5.60;99.90;;;;;;5125731;27;20047;-79
2022/01/04 12:21:06;;;;;;;9.80;1.73;;;5.50;99.90;;;;;;5118933;27;20066;-79
2022/01/04 12:23:35;;;;;;;7.85;1.15;;;5.30;99.90;;;;;;5119994;27;20063;-79
2022/01/04 12:26:01;;;;;;;2.72;1.05;;;5.40;99.90;;;;;;5113320;27;20052;-79
2022/01/04 12:28:28;;;;;;;4.45;0.90;;;5.30;99.90;;;;;;5124113;27;20062;-80
2022/01/04 12:30:55;;;;;;;3.78;0.90;;;5.40;99.90;;;;;;5122414;27;20058;-79
2022/01/04 12:33:21;;;;;;;3.60;1.27;;;5.50;99.90;;;;;;5109577;27;20059;-80
2022/01/04 12:35:48;;;;;;;1.63;0.60;;;5.50;99.90;;;;;;5122486;27;20043;-79
2022/01/04 12:38:14;;;;;;;4.70;1.13;;;5.40;99.90;;;;;;5116990;27;20140;-79
2022/01/04 12:40:41;;;;;;;5.07;1.35;;;5.60;99.90;;;;;;5124053;27;20154;-79
2022/01/04 12:43:08;;;;;;;2.38;1.00;;;5.60;99.90;;;;;;5117908;27;20164;-79
2022/01/04 12:45:34;;;;;;;1.75;0.52;;;5.50;99.90;;;;;;5122512;27;20440;-79
2022/01/04 12:48:01;;;;;;;4.68;0.52;;;5.50;99.90;;;;;;5110599;27;20051;-78
2022/01/04 12:50:28;;;;;;;7.57;1.23;;;5.70;99.90;;;;;;5122936;27;20051;-78